Impacts METAR Board INFO
IDs:

KMIA - Miami Intl, FL, US

Updated at: 1251 UTC 18 Dec 2017
Potential Impact None Slight Moderate High
Time18/00Z 18/01Z 18/02Z 18/03Z 18/04Z 18/05Z 18/06Z 18/07Z 18/08Z 18/09Z 18/10Z 18/11Z 18/12Z
VIS10 10 10 10 10 10 10 10 10 10 10 10 7
CIG49 -- -- 55 250 250 250 250 250 250 250 250 --
CoverBKNSCTSCTBKNBKNBKNBKNBKNBKNBKNBKNBKNSCT
FltCatVFRVFRVFRVFRVFRVFRVFRVFRVFRVFRVFRVFRVFR
WX--------------------------
WDir801209080801101101001109010000
WSpd6 5 5 5 4 5 5 3 4 3 3 0 0
WGst-- -- -- -- -- -- -- -- -- -- -- -- --
Raw hourly METARs
KMIA 172353Z 08006KT 10SM FEW024 BKN049 BKN250 25/21 A3020 RMK AO2 SLP226 T02500206 10278 20222 53008
KMIA 180053Z 12005KT 10SM FEW024 SCT055 SCT250 25/21 A3021 RMK AO2 SLP231 T02500206
KMIA 180153Z 09005KT 10SM FEW041 SCT055 SCT250 24/21 A3022 RMK AO2 SLP234 T02440211
KMIA 180253Z 08005KT 10SM FEW042 BKN055 BKN250 24/22 A3023 RMK AO2 SLP237 T02440217 51011
KMIA 180353Z 08004KT 10SM FEW040 SCT055 BKN250 24/22 A3023 RMK AO2 SLP236 T02390217
KMIA 180453Z 11005KT 10SM FEW040 SCT055 BKN250 24/22 A3022 RMK AO2 SLP232 T02390217 402830194
KMIA 180553Z 11005KT 10SM FEW040 FEW055 BKN250 23/22 A3020 RMK AO2 SLP228 T02330217 10256 20228 58009
KMIA 180653Z 10003KT 10SM FEW040 FEW055 BKN250 23/21 A3020 RMK AO2 SLP225 T02280211
KMIA 180753Z 11004KT 10SM FEW040 FEW055 BKN250 23/21 A3019 RMK AO2 SLP222 T02280211
KMIA 180853Z 09003KT 10SM FEW020 FEW055 BKN250 23/21 A3019 RMK AO2 SLP224 T02280211 55004
KMIA 180953Z 10003KT 10SM FEW020 FEW055 BKN250 22/21 A3020 RMK AO2 SLP225 T02220211
KMIA 181053Z 00000KT 10SM FEW019 FEW055 BKN250 22/21 A3021 RMK AO2 SLP229 T02220211
KMIA 181153Z 00000KT 7SM FEW019 SCT250 21/20 A3022 RMK AO2 SLP232 T02060200 10239 20206 53008